createdAt,value
2023-01-13T00:01:38.222Z,100285.47
2023-01-13T00:04:40.757Z,100291.75
2023-01-13T00:07:43.310Z,100288.53
2023-01-13T00:10:47.811Z,100293.63
2023-01-13T00:13:51.708Z,100293.19
2023-01-13T00:16:54.224Z,100286.03
2023-01-13T00:19:57.327Z,100276.53
2023-01-13T00:23:00.156Z,100274.91
2023-01-13T00:26:03.954Z,100273.00
2023-01-13T00:29:07.849Z,100271.50
2023-01-13T00:32:10.367Z,100267.19
2023-01-13T00:35:12.899Z,100244.94
2023-01-13T00:38:15.430Z,100262.44
2023-01-13T00:41:18.642Z,100267.19
2023-01-13T00:44:21.596Z,100272.75
2023-01-13T00:47:24.235Z,100249.63
2023-01-13T00:50:28.481Z,100232.94
2023-01-13T00:53:33.675Z,100231.69
2023-01-13T00:56:41.009Z,100247.13
2023-01-13T00:59:45.256Z,100251.06
2023-01-13T01:02:47.861Z,100245.06
2023-01-13T01:05:50.394Z,100255.28
2023-01-13T01:08:53.048Z,100251.59
2023-01-13T01:11:55.592Z,100250.00
2023-01-13T01:14:59.478Z,100226.97
2023-01-13T01:18:02.004Z,100216.56
2023-01-13T01:21:04.892Z,100233.22
2023-01-13T01:24:08.079Z,100225.25
2023-01-13T01:27:10.637Z,100233.97
2023-01-13T01:30:15.917Z,100229.22
2023-01-13T01:33:18.461Z,100218.81
2023-01-13T01:36:21.596Z,100237.00
2023-01-13T01:39:24.130Z,100226.69
2023-01-13T01:42:44.076Z,100222.31
2023-01-13T01:45:47.965Z,100231.34
2023-01-13T01:48:50.474Z,100238.53
2023-01-13T01:51:54.630Z,100228.56
2023-01-13T01:54:58.562Z,100251.25
2023-01-13T01:58:03.460Z,100240.94
2023-01-13T02:01:07.533Z,100238.59
2023-01-13T02:04:12.759Z,100236.63
2023-01-13T02:07:15.293Z,100215.56
2023-01-13T02:10:19.356Z,100229.28
2023-01-13T02:13:21.898Z,100216.66
2023-01-13T02:16:25.821Z,100219.44
2023-01-13T02:20:02.761Z,100222.22
2023-01-13T02:23:40.762Z,100218.25
2023-01-13T02:27:08.694Z,100211.53
2023-01-13T02:30:31.802Z,100215.13
2023-01-13T02:33:38.955Z,100212.69
2023-01-13T02:36:47.191Z,100213.88
2023-01-13T02:39:51.543Z,100211.81
2023-01-13T02:43:26.955Z,100216.91
2023-01-13T02:46:32.054Z,100210.03
2023-01-13T02:49:35.489Z,100217.19
2023-01-13T02:52:40.316Z,100211.91
2023-01-13T02:55:46.263Z,100218.63
2023-01-13T02:58:48.799Z,100208.25
2023-01-13T03:01:53.192Z,100192.75
2023-01-13T03:04:56.575Z,100224.00
2023-01-13T03:08:11.856Z,100215.94
2023-01-13T03:11:14.807Z,100226.34
2023-01-13T03:14:26.280Z,100231.91
2023-01-13T03:17:33.152Z,100229.47
2023-01-13T03:20:38.385Z,100218.28
2023-01-13T03:23:45.302Z,100205.03
2023-01-13T03:26:49.303Z,100210.19
2023-01-13T03:29:54.292Z,100208.97
2023-01-13T03:32:59.676Z,100210.13
2023-01-13T03:36:04.010Z,100203.69
2023-01-13T03:39:08.733Z,100207.69
2023-01-13T03:42:13.016Z,100193.34
2023-01-13T03:45:15.617Z,100202.88
2023-01-13T03:48:20.083Z,100198.00
2023-01-13T03:51:22.616Z,100194.34
2023-01-13T03:54:25.839Z,100185.91
2023-01-13T03:57:30.879Z,100198.63
2023-01-13T04:00:34.868Z,100211.63
2023-01-13T04:03:40.963Z,100202.47
2023-01-13T04:06:47.002Z,100197.63
2023-01-13T04:09:50.728Z,100198.81
2023-01-13T04:13:04.104Z,100203.91
2023-01-13T04:16:07.118Z,100208.66
2023-01-13T04:19:11.061Z,100211.06
2023-01-13T04:22:13.622Z,100208.72
2023-01-13T04:25:16.343Z,100214.28
2023-01-13T04:28:18.934Z,100217.50
2023-01-13T04:31:21.621Z,100205.72
2023-01-13T04:34:28.163Z,100212.16
2023-01-13T04:37:30.855Z,100202.41
2023-01-13T04:40:33.385Z,100218.78
2023-01-13T04:43:35.963Z,100224.53
2023-01-13T04:46:38.575Z,100217.56
2023-01-13T04:49:42.623Z,100236.72
2023-01-13T04:52:45.164Z,100233.59
2023-01-13T04:55:49.627Z,100224.91
2023-01-13T04:58:52.246Z,100213.69
2023-01-13T05:01:54.879Z,100235.22
2023-01-13T05:04:58.935Z,100216.13
2023-01-13T05:08:01.598Z,100222.13
2023-01-13T05:11:24.541Z,100225.72
2023-01-13T05:14:44.920Z,100218.09
2023-01-13T05:17:47.434Z,100231.16
2023-01-13T05:20:51.407Z,100212.88
2023-01-13T05:24:11.516Z,100224.00
2023-01-13T05:27:14.098Z,100230.72
2023-01-13T05:30:17.391Z,100233.06
2023-01-13T05:33:21.176Z,100230.97
2023-01-13T05:36:25.135Z,100222.22
2023-01-13T05:39:28.068Z,100209.50
2023-01-13T05:42:48.312Z,100240.31
2023-01-13T05:45:52.320Z,100227.59
2023-01-13T05:48:54.903Z,100235.44
2023-01-13T05:51:58.836Z,100229.53
2023-01-13T05:55:01.363Z,100227.59
2023-01-13T05:58:03.931Z,100234.75
2023-01-13T06:01:07.542Z,100229.19
2023-01-13T06:04:10.160Z,100219.69
2023-01-13T06:07:14.095Z,100222.91
2023-01-13T06:10:17.079Z,100207.88
2023-01-13T06:13:19.665Z,100225.34
2023-01-13T06:16:22.345Z,100234.22
2023-01-13T06:19:24.892Z,100235.81
2023-01-13T06:22:30.931Z,100244.63
2023-01-13T06:25:39.216Z,100246.22
2023-01-13T06:28:41.815Z,100228.38
2023-01-13T06:31:44.461Z,100242.28
2023-01-13T06:34:48.321Z,100258.94
2023-01-13T06:37:52.803Z,100264.13
2023-01-13T06:40:55.400Z,100255.00
2023-01-13T06:43:56.975Z,100251.06
2023-01-13T06:46:59.598Z,100248.63
2023-01-13T06:50:02.185Z,100262.88
2023-01-13T06:53:06.104Z,100257.31
2023-01-13T06:56:08.766Z,100268.41
2023-01-13T06:59:11.403Z,100261.72
2023-01-13T07:02:14.144Z,100275.59
2023-01-13T07:05:17.029Z,100268.88
2023-01-13T07:08:20.948Z,100277.22
2023-01-13T07:11:23.517Z,100266.09
2023-01-13T07:14:43.506Z,100288.31
2023-01-13T07:17:46.091Z,100277.22
2023-01-13T07:20:53.385Z,100280.44
2023-01-13T07:23:57.312Z,100285.53
2023-01-13T07:26:59.904Z,100273.28
2023-01-13T07:30:02.428Z,100278.09
2023-01-13T07:33:05.176Z,100281.34
2023-01-13T07:36:08.289Z,100292.09
2023-01-13T07:39:12.225Z,100291.28
2023-01-13T07:42:32.365Z,100285.38
2023-01-13T07:45:35.042Z,100290.94
2023-01-13T07:48:38.126Z,100287.78
2023-01-13T07:51:40.743Z,100283.75
2023-01-13T07:54:44.663Z,100298.88
2023-01-13T07:57:48.463Z,100311.63
2023-01-13T08:00:51.015Z,100320.41
2023-01-13T08:03:53.602Z,100314.50
2023-01-13T08:06:56.193Z,100335.91
2023-01-13T08:10:00.140Z,100325.16
2023-01-13T08:13:21.217Z,100337.16
2023-01-13T08:16:23.901Z,100335.91
2023-01-13T08:19:26.516Z,100331.50
2023-01-13T08:22:30.944Z,100339.84
2023-01-13T08:25:34.842Z,100348.44
2023-01-13T08:28:37.555Z,100361.53
2023-01-13T08:31:40.159Z,100359.09
2023-01-13T08:34:42.822Z,100366.97
2023-01-13T08:37:45.499Z,100361.41
2023-01-13T08:40:49.387Z,100348.59
2023-01-13T08:43:54.563Z,100345.72
2023-01-13T08:46:57.319Z,100347.56
2023-01-13T08:49:59.916Z,100364.16
2023-01-13T08:53:02.466Z,100355.47
2023-01-13T08:56:10.856Z,100365.31
2023-01-13T08:59:13.667Z,100376.06
2023-01-13T09:02:17.053Z,100379.31
2023-01-13T09:05:19.715Z,100385.28
2023-01-13T09:08:22.262Z,100389.00
2023-01-13T09:11:47.224Z,100402.63
2023-01-13T09:14:49.754Z,100394.84
2023-01-13T09:17:52.345Z,100406.41
2023-01-13T09:20:54.875Z,100407.66
2023-01-13T09:23:57.412Z,100405.34
2023-01-13T09:27:01.338Z,100403.00
2023-01-13T09:30:04.176Z,100421.28
2023-01-13T09:33:24.579Z,100426.16
2023-01-13T09:36:27.157Z,100409.47
2023-01-13T09:39:29.683Z,100440.59
2023-01-13T09:42:54.087Z,100435.13
2023-01-13T09:45:58.928Z,100443.91
2023-01-13T09:49:03.570Z,100443.22
2023-01-13T09:52:09.010Z,100448.06
2023-01-13T09:55:14.975Z,100471.19
2023-01-13T09:58:19.703Z,100460.53
2023-01-13T10:01:25.085Z,100465.63
2023-01-13T10:04:27.748Z,100478.00
2023-01-13T10:07:30.826Z,100479.50
2023-01-13T10:10:37.751Z,100483.22
2023-01-13T10:13:41.493Z,100488.78
2023-01-13T10:16:45.935Z,100495.16
2023-01-13T10:19:49.738Z,100503.81
2023-01-13T10:22:58.749Z,100505.44
2023-01-13T10:26:04.874Z,100488.78
2023-01-13T10:29:20.611Z,100508.66
2023-01-13T10:32:23.193Z,100499.88
2023-01-13T10:35:51.465Z,100497.53
2023-01-13T10:38:54.017Z,100517.38
2023-01-13T10:42:03.796Z,100517.38
2023-01-13T10:45:18.397Z,100533.25
2023-01-13T10:48:20.963Z,100538.44
2023-01-13T10:51:25.309Z,100532.16
2023-01-13T10:54:27.917Z,100532.16
2023-01-13T10:57:30.572Z,100542.94
2023-01-13T11:00:34.880Z,100542.22
2023-01-13T11:03:41.150Z,100538.19
2023-01-13T11:06:46.314Z,100542.94
2023-01-13T11:09:48.861Z,100542.69
2023-01-13T11:13:05.259Z,100552.31
2023-01-13T11:16:12.277Z,100560.28
2023-01-13T11:19:16.704Z,100559.13
2023-01-13T11:22:21.609Z,100576.28
2023-01-13T11:25:31.388Z,100579.75
2023-01-13T11:28:39.212Z,100580.69
2023-01-13T11:31:44.448Z,100565.63
2023-01-13T11:34:48.840Z,100591.06
2023-01-13T11:37:53.674Z,100589.09
2023-01-13T11:40:58.224Z,100618.19
2023-01-13T11:44:07.478Z,100598.25
2023-01-13T11:47:11.749Z,100610.66
2023-01-13T11:50:16.534Z,100599.63
2023-01-13T11:53:29.491Z,100607.28
2023-01-13T11:56:46.947Z,100603.88
2023-01-13T11:59:56.467Z,100612.78
2023-01-13T12:03:11.704Z,100615.66
2023-01-13T12:06:23.026Z,100616.47
2023-01-13T12:09:34.055Z,100634.75
2023-01-13T12:12:43.300Z,100637.91
2023-01-13T12:16:06.565Z,100648.94
2023-01-13T12:19:19.872Z,100651.25
2023-01-13T12:22:24.545Z,100648.47
2023-01-13T12:25:31.210Z,100649.16
2023-01-13T12:28:41.278Z,100661.66
2023-01-13T12:31:43.916Z,100661.47
2023-01-13T12:34:56.023Z,100671.88
2023-01-13T12:38:00.967Z,100671.88
2023-01-13T12:41:10.361Z,100679.41
2023-01-13T12:44:17.875Z,100664.69
2023-01-13T12:47:33.390Z,100682.53
2023-01-13T12:50:43.909Z,100676.53
2023-01-13T12:53:46.521Z,100689.28
2023-01-13T12:56:49.063Z,100696.09
2023-01-13T13:00:18.376Z,100705.72
2023-01-13T13:03:28.555Z,100707.78
2023-01-13T13:06:32.551Z,100696.63
2023-01-13T13:09:38.079Z,100706.16
2023-01-13T13:13:11.684Z,100705.38
2023-01-13T13:16:37.319Z,100702.22
2023-01-13T13:19:47.439Z,100718.47
2023-01-13T13:22:52.711Z,100725.16
2023-01-13T13:26:04.620Z,100721.91
2023-01-13T13:29:29.704Z,100721.91
2023-01-13T13:32:39.327Z,100751.34
2023-01-13T13:35:54.830Z,100744.16
2023-01-13T13:39:28.681Z,100754.81
2023-01-13T13:42:50.869Z,100769.19
2023-01-13T13:46:11.242Z,100775.22
2023-01-13T13:49:14.049Z,100786.34
2023-01-13T13:52:19.788Z,100781.94
2023-01-13T13:55:24.702Z,100784.72
2023-01-13T13:58:27.332Z,100799.78
2023-01-13T14:01:31.070Z,100805.34
2023-01-13T14:04:35.480Z,100813.34
2023-01-13T14:07:43.745Z,100814.84
2023-01-13T14:10:47.677Z,100816.47
2023-01-13T14:13:55.587Z,100834.78
2023-01-13T14:16:58.657Z,100819.59
2023-01-13T14:20:02.515Z,100822.03
2023-01-13T14:23:05.763Z,100845.91
2023-01-13T14:26:12.880Z,100854.25
2023-01-13T14:29:17.494Z,100848.22
2023-01-13T14:32:20.879Z,100847.06
2023-01-13T14:35:23.412Z,100851.47
2023-01-13T14:38:25.995Z,100855.41
2023-01-13T14:41:30.881Z,100873.25
2023-01-13T14:44:35.011Z,100869.56
2023-01-13T14:47:39.414Z,100855.16
2023-01-13T14:50:42.569Z,100867.00
2023-01-13T14:53:46.879Z,100876.03
2023-01-13T14:56:55.096Z,100870.94
2023-01-13T15:00:01.530Z,100890.88
2023-01-13T15:03:07.192Z,100896.88
2023-01-13T15:06:22.627Z,100895.72
2023-01-13T15:09:26.374Z,100904.41
2023-01-13T15:12:35.628Z,100923.53
2023-01-13T15:15:39.550Z,100915.53
2023-01-13T15:18:42.240Z,100910.78
2023-01-13T15:21:44.778Z,100923.53
2023-01-13T15:24:47.942Z,100930.72
2023-01-13T15:27:52.179Z,100932.34
2023-01-13T15:30:55.270Z,100932.34
2023-01-13T15:33:58.727Z,100949.03
2023-01-13T15:37:01.337Z,100936.28
2023-01-13T15:40:04.159Z,100948.69
2023-01-13T15:43:27.226Z,100951.81
2023-01-13T15:46:39.105Z,100964.56
2023-01-13T15:49:42.860Z,100975.69
2023-01-13T15:52:45.401Z,100973.72
2023-01-13T15:55:49.942Z,100971.97
2023-01-13T15:58:53.835Z,100984.03
2023-01-13T16:01:56.377Z,100964.09
2023-01-13T16:04:58.953Z,100982.41
2023-01-13T16:08:01.563Z,100987.97
2023-01-13T16:11:04.131Z,100993.06
2023-01-13T16:14:08.058Z,100997.47
2023-01-13T16:17:15.047Z,100997.47
2023-01-13T16:20:18.460Z,101003.69
2023-01-13T16:23:21.078Z,101006.97
2023-01-13T16:26:24.873Z,101011.38
2023-01-13T16:29:28.767Z,101019.72
2023-01-13T16:32:31.306Z,101033.13
2023-01-13T16:35:35.187Z,101016.44
2023-01-13T16:38:37.762Z,101014.16
2023-01-13T16:41:40.299Z,101028.06
2023-01-13T16:44:46.455Z,101045.88
2023-01-13T16:47:49.116Z,101044.25
2023-01-13T16:50:51.724Z,101060.28
2023-01-13T16:53:54.314Z,101063.06
2023-01-13T16:56:56.868Z,101072.53
2023-01-13T17:00:00.873Z,101082.38
2023-01-13T17:03:03.461Z,101087.94
2023-01-13T17:06:07.496Z,101072.75
2023-01-13T17:09:19.673Z,101079.00
2023-01-13T17:12:22.281Z,101085.25
2023-01-13T17:15:26.161Z,101105.38
2023-01-13T17:18:28.727Z,101114.44
2023-01-13T17:21:31.303Z,101110.94
2023-01-13T17:24:35.095Z,101130.41
2023-01-13T17:27:37.628Z,101136.66
2023-01-13T17:30:44.105Z,101141.25
2023-01-13T17:33:46.676Z,101146.72
2023-01-13T17:36:49.415Z,101147.63
2023-01-13T17:39:53.482Z,101129.69
2023-01-13T17:42:57.175Z,101135.66
2023-01-13T17:46:01.129Z,101129.41
2023-01-13T17:49:03.699Z,101131.72
2023-01-13T17:52:07.020Z,101142.84
2023-01-13T17:55:10.264Z,101136.47
2023-01-13T17:58:12.820Z,101146.09
2023-01-13T18:01:18.082Z,101162.09
2023-01-13T18:04:21.512Z,101153.28
2023-01-13T18:07:24.033Z,101161.59
2023-01-13T18:10:26.707Z,101178.75
2023-01-13T18:13:29.254Z,101166.03
2023-01-13T18:16:33.282Z,101177.81
2023-01-13T18:19:53.383Z,101175.69
2023-01-13T18:23:13.703Z,101193.38
2023-01-13T18:26:34.892Z,101180.63
2023-01-13T18:29:37.431Z,101183.28
2023-01-13T18:32:41.295Z,101209.88
2023-01-13T18:35:43.938Z,101205.97
2023-01-13T18:38:46.553Z,101207.75
2023-01-13T18:42:21.456Z,101216.56
2023-01-13T18:45:25.184Z,101215.09
2023-01-13T18:48:31.147Z,101223.09
2023-01-13T18:51:33.690Z,101229.63
2023-01-13T18:54:36.419Z,101221.16
2023-01-13T18:57:40.596Z,101219.66
2023-01-13T19:00:43.175Z,101233.09
2023-01-13T19:03:47.108Z,101225.22
2023-01-13T19:06:51.625Z,101231.75
2023-01-13T19:09:55.395Z,101236.63
2023-01-13T19:12:58.016Z,101221.25
2023-01-13T19:16:05.461Z,101229.72
2023-01-13T19:19:09.447Z,101235.78
2023-01-13T19:22:12.104Z,101236.91
2023-01-13T19:25:14.674Z,101237.91
2023-01-13T19:28:17.258Z,101235.56
2023-01-13T19:31:20.565Z,101232.78
2023-01-13T19:34:25.310Z,101241.41
2023-01-13T19:37:30.258Z,101261.38
2023-01-13T19:40:32.963Z,101268.56
2023-01-13T19:43:53.226Z,101276.53
2023-01-13T19:46:55.796Z,101269.38
2023-01-13T19:50:03.412Z,101275.06
2023-01-13T19:53:06.084Z,101270.31
2023-01-13T19:56:08.723Z,101289.44
2023-01-13T19:59:12.634Z,101286.81
2023-01-13T20:02:16.025Z,101292.03
2023-01-13T20:05:22.434Z,101292.03
2023-01-13T20:08:25.107Z,101299.25
2023-01-13T20:11:31.287Z,101301.22
2023-01-13T20:14:33.872Z,101317.06
2023-01-13T20:17:36.442Z,101310.38
2023-01-13T20:20:40.371Z,101320.81
2023-01-13T20:23:44.145Z,101332.75
2023-01-13T20:26:47.320Z,101339.13
2023-01-13T20:29:49.905Z,101337.50
2023-01-13T20:32:52.956Z,101345.34
2023-01-13T20:35:59.923Z,101347.47
2023-01-13T20:39:05.904Z,101348.63
2023-01-13T20:42:25.945Z,101349.75
2023-01-13T20:45:28.478Z,101360.41
2023-01-13T20:48:31.061Z,101357.94
2023-01-13T20:51:34.942Z,101358.75
2023-01-13T20:54:37.663Z,101365.16
2023-01-13T20:57:40.338Z,101374.94
2023-01-13T21:00:42.971Z,101377.72
2023-01-13T21:03:45.647Z,101378.88
2023-01-13T21:06:49.827Z,101378.88
2023-01-13T21:09:52.473Z,101370.53
2023-01-13T21:13:12.735Z,101385.56
2023-01-13T21:16:15.432Z,101382.31
2023-01-13T21:19:18.142Z,101383.16
2023-01-13T21:22:22.042Z,101392.63
2023-01-13T21:25:24.638Z,101398.84
2023-01-13T21:28:27.174Z,101405.22
2023-01-13T21:31:29.781Z,101398.84
2023-01-13T21:34:32.842Z,101401.63
2023-01-13T21:37:38.026Z,101403.56
2023-01-13T21:40:40.610Z,101399.66
2023-01-13T21:44:00.584Z,101411.13
2023-01-13T21:47:20.803Z,101411.44
2023-01-13T21:50:24.104Z,101422.56
2023-01-13T21:53:27.982Z,101418.16
2023-01-13T21:56:30.548Z,101426.50
2023-01-13T21:59:33.078Z,101430.41
2023-01-13T22:02:36.489Z,101419.31
2023-01-13T22:05:39.370Z,101427.97
2023-01-13T22:08:43.263Z,101427.63
2023-01-13T22:11:45.802Z,101428.78
2023-01-13T22:14:48.452Z,101428.78
2023-01-13T22:17:52.176Z,101425.53
2023-01-13T22:20:54.726Z,101427.13
2023-01-13T22:23:59.190Z,101421.59
2023-01-13T22:27:01.798Z,101408.03
2023-01-13T22:30:04.387Z,101433.38
2023-01-13T22:33:06.959Z,101434.53
2023-01-13T22:36:09.653Z,101445.13
2023-01-13T22:39:13.568Z,101441.91
2023-01-13T22:42:16.204Z,101452.53
2023-01-13T22:45:18.784Z,101440.91
2023-01-13T22:48:21.303Z,101451.19
2023-01-13T22:51:23.976Z,101458.25
2023-01-13T22:54:27.915Z,101454.66
2023-01-13T22:57:36.064Z,101447.97
2023-01-13T23:00:41.737Z,101446.63
2023-01-13T23:03:46.137Z,101438.16
2023-01-13T23:06:48.785Z,101440.44
2023-01-13T23:09:52.708Z,101445.19
2023-01-13T23:12:55.251Z,101443.06
2023-01-13T23:15:57.895Z,101420.34
2023-01-13T23:19:00.567Z,101429.84
2023-01-13T23:22:03.090Z,101429.34
2023-01-13T23:25:08.348Z,101424.94
2023-01-13T23:28:10.875Z,101424.78
2023-01-13T23:31:14.769Z,101438.66
2023-01-13T23:34:17.338Z,101426.25
2023-01-13T23:37:19.924Z,101438.84
2023-01-13T23:40:23.810Z,101432.47
2023-01-13T23:43:27.195Z,101427.59
2023-01-13T23:46:30.016Z,101439.00
2023-01-13T23:49:32.681Z,101438.84
2023-01-13T23:52:35.268Z,101438.38
2023-01-13T23:55:39.224Z,101427.25
2023-01-13T23:58:41.914Z,101421.22
